LKKVLKTB

Guest
Details From LKKV - Karlovy Vary
To LKTB - Turany
Flight Number -
Tags generated
Created
Modified
Stats Distance 160 nm / 296 km
Max Altitude 21,300 ft / 6,492 m
Waypoints 3
Social Downloads 6
Likes 0
Share VATSIM

Download

Looking for another format? Having issues loading an existing format? Contact us
Advertisement - Login to hide

Notes

Basic altitude profile: - Ascent Rate: 2500ft/min - Ascent Speed: 250kts - Cruise Altitude: 35000ft - Cruise Speed: 420kts - Descent Rate: 1500ft/min - Descent Speed: 250kts Options: - Use NATs: yes - Use PACOTS: yes - Use low airways: no - Use high airways: yes

Route

LKKV LIBSI LKTB

ID Type Via Altitude Latitude Longitude Leg Dist Tot Dist Heading (true) Name
O LKKV APT - 0 ft / 0 m 50.20349˚ 12.91446˚ - 0 nm - Karlovy Vary
LIBSI FIX - 21,300 ft / 6,492 m 49.80781˚ 14.35163˚ 60 nm 60 nm 113° / 114° -
O LKTB APT - 0 ft / 0 m 49.15102˚ 16.69317˚ 99 nm 159 nm 112° / 114° Turany

Altitude Profile

Advertisement - Login to hide

LKKV

Details ICAO LKKV (KLV)
Name Karlovy Vary
Region Czech Republic
Timezone Europe/Prague (UTC+2.0)
Stats Elevation 1,988 ft / 606 m (AMSL)
Location 50.203487° 12.914461°
Runways 2
Magnetic Variation 3.578° E

METAR

LKKV 252300Z VRB02KT CAVOK 10/10 Q1021

Decode

TAF

TAF LKKV 251700Z 2518/2700 VRB02KT CAVOK TEMPO 2608/2616 09008KT 9999 SCT050TCU

Decode

Departure Runways

ID Width Length Bearing (true) Bearing (mag) Surface Threshold Offset Overrun Length
11 98 ft / 30 m 7,049 ft / 2,149 m 113.09° 109.51° Asphalt 495 ft / 151 m 0 ft / 0 m
12 98 ft / 30 m 3,351 ft / 1,021 m 113.19° 109.61° Grass 0 ft / 0 m 0 ft / 0 m
29 98 ft / 30 m 7,049 ft / 2,149 m 293.11° 289.53° Asphalt 0 ft / 0 m 0 ft / 0 m
30 98 ft / 30 m 3,351 ft / 1,021 m 293.20° 289.62° Grass 0 ft / 0 m 0 ft / 0 m

LKTB

Details ICAO LKTB (BRQ)
Name Turany
Region Czech Republic
Timezone Europe/Prague (UTC+2.0)
Stats Elevation 777 ft / 237 m (AMSL)
Location 49.151016° 16.693171°
Runways 2
Magnetic Variation 4.431° E

METAR

LKTB 252300Z 03004KT CAVOK 16/14 Q1020 NOSIG

Decode

TAF

TAF LKTB 251700Z 2518/2700 VRB02KT CAVOK TEMPO 2609/2615 05009KT 9999 SCT060TCU

Decode

Destination Runways

ID Width Length Bearing (true) Bearing (mag) Surface Threshold Offset Overrun Length
09 98 ft / 30 m 3,272 ft / 997 m 97.50° 93.07° Grass 0 ft / 0 m 0 ft / 0 m
10 197 ft / 60 m 8,674 ft / 2,644 m 97.52° 93.09° Concrete 0 ft / 0 m 0 ft / 0 m
27 98 ft / 30 m 3,272 ft / 997 m 277.51° 273.08° Grass 0 ft / 0 m 0 ft / 0 m
28 197 ft / 60 m 8,674 ft / 2,644 m 277.55° 273.12° Concrete 0 ft / 0 m 0 ft / 0 m

Approach Navaids

Runway Type Ident Frequency Range Bearing (true) Bearing (mag) Slope Elevation
28 Localiser BO 111.50 MHz 18 nm / 33 km 277.51° 273.08° - 771 ft / 235 m (AMSL)
28 Glidescope BO 111.50 MHz 10 nm / 19 km 277.53° 273.10° 3.00° 771 ft / 235 m (AMSL)
28 DME BO 111.50 MHz 18 nm / 33 km - - - 785 ft / 239 m (AMSL)

Popular Alternatives